Time;durP1;ratioP1;P1;durP2;ratioP2;P2;SDS_P1;SDS_P2;PMS_P1;PMS_P2;Temp;Humidity;BMP_temperature;BMP_pressure;BME280_temperature;BME280_humidity;BME280_pressure;Samples;Min_cycle;Max_cycle;Signal;HPM_P1;HPM_P2
2024/01/06 00:01:01;;;;;;;1.67;1.48;;;3.40;99.90;;;;;;5042250;28;20077;-79
2024/01/06 00:03:26;;;;;;;2.47;1.48;;;3.40;99.90;;;;;;5040374;28;20041;-79
2024/01/06 00:05:52;;;;;;;0.95;0.70;;;3.30;99.90;;;;;;5021536;28;20116;-79
2024/01/06 00:08:18;;;;;;;2.65;1.75;;;3.30;99.90;;;;;;5035298;28;20469;-79
2024/01/06 00:10:44;;;;;;;1.70;1.42;;;3.30;99.90;;;;;;5037583;28;20045;-79
2024/01/06 00:13:10;;;;;;;1.80;1.67;;;3.30;99.90;;;;;;5035226;28;20042;-79
2024/01/06 00:15:36;;;;;;;2.67;1.58;;;3.30;99.90;;;;;;5034601;28;20038;-79
2024/01/06 00:18:02;;;;;;;1.85;0.93;;;3.30;99.90;;;;;;5037492;28;20065;-79
2024/01/06 00:20:28;;;;;;;1.50;1.23;;;3.30;99.90;;;;;;5033553;28;20073;-79
2024/01/06 00:22:53;;;;;;;1.95;1.70;;;3.30;99.90;;;;;;5026675;28;20044;-79
2024/01/06 00:25:19;;;;;;;2.72;1.85;;;3.30;99.90;;;;;;5020992;28;20045;-78
2024/01/06 00:27:48;;;;;;;3.67;2.03;;;3.30;99.90;;;;;;5036464;28;20041;-79
2024/01/06 00:30:14;;;;;;;1.95;1.45;;;3.40;99.90;;;;;;5012121;28;20045;-79
2024/01/06 00:32:40;;;;;;;2.47;1.55;;;3.20;99.90;;;;;;5025077;28;20042;-79
2024/01/06 00:35:06;;;;;;;1.60;1.27;;;3.30;99.90;;;;;;5038493;28;20120;-79
2024/01/06 00:37:32;;;;;;;4.95;2.13;;;3.30;99.90;;;;;;5036831;28;20056;-79
2024/01/06 00:39:57;;;;;;;2.28;1.50;;;3.30;99.90;;;;;;5016550;28;20046;-79
2024/01/06 00:42:23;;;;;;;3.28;2.20;;;3.30;99.90;;;;;;5019447;28;20037;-79
2024/01/06 00:44:49;;;;;;;1.55;1.35;;;3.30;99.90;;;;;;5023416;28;20112;-79
2024/01/06 00:47:14;;;;;;;2.33;1.67;;;3.30;99.90;;;;;;5034449;28;20041;-79
2024/01/06 00:49:40;;;;;;;2.78;1.35;;;3.30;99.90;;;;;;5019902;28;20045;-79
2024/01/06 00:52:06;;;;;;;2.65;2.17;;;3.30;99.90;;;;;;5024351;28;20608;-79
2024/01/06 00:54:31;;;;;;;5.22;2.13;;;3.30;99.90;;;;;;5033879;28;20045;-79
2024/01/06 00:56:57;;;;;;;2.35;1.52;;;3.30;99.90;;;;;;5035609;28;20042;-79
2024/01/06 00:59:23;;;;;;;1.85;1.52;;;3.30;99.90;;;;;;5036797;28;20056;-79
2024/01/06 01:01:48;;;;;;;3.60;2.47;;;3.30;99.90;;;;;;5026995;28;20076;-79
2024/01/06 01:04:14;;;;;;;5.13;2.90;;;3.30;99.90;;;;;;5023920;28;20048;-79
2024/01/06 01:06:40;;;;;;;3.78;2.33;;;3.30;99.90;;;;;;5035927;28;20046;-79
2024/01/06 01:09:05;;;;;;;5.30;3.05;;;3.20;99.90;;;;;;5038651;28;20042;-79
2024/01/06 01:11:31;;;;;;;4.03;2.65;;;3.20;99.90;;;;;;5018084;28;20040;-79
2024/01/06 01:13:57;;;;;;;7.45;3.63;;;3.20;99.90;;;;;;5028019;28;20044;-79
2024/01/06 01:16:23;;;;;;;6.90;2.80;;;3.20;99.90;;;;;;5026775;28;20054;-79
2024/01/06 01:18:48;;;;;;;4.45;2.83;;;3.20;99.90;;;;;;5036278;28;20722;-79
2024/01/06 01:21:14;;;;;;;3.72;2.05;;;3.20;99.90;;;;;;5014086;28;20057;-79
2024/01/06 01:23:40;;;;;;;4.88;2.92;;;3.20;99.90;;;;;;5018420;28;20084;-79
2024/01/06 01:26:06;;;;;;;3.17;2.13;;;3.20;99.90;;;;;;5025499;28;20045;-79
2024/01/06 01:28:32;;;;;;;2.78;2.20;;;3.20;99.90;;;;;;5039492;28;20045;-79
2024/01/06 01:30:57;;;;;;;2.90;1.80;;;3.10;99.90;;;;;;5023429;28;20042;-79
2024/01/06 01:33:24;;;;;;;3.58;1.85;;;3.10;99.90;;;;;;5025048;28;20048;-79
2024/01/06 01:35:49;;;;;;;2.03;1.67;;;3.00;99.90;;;;;;5018152;28;20105;-76
2024/01/06 01:38:15;;;;;;;2.80;2.40;;;3.00;99.90;;;;;;5030005;28;20017;-77
2024/01/06 01:40:41;;;;;;;3.13;2.30;;;3.10;99.90;;;;;;5043305;28;20038;-79
2024/01/06 01:43:16;;;;;;;2.72;2.00;;;3.00;99.90;;;;;;5041086;28;20563;-77
2024/01/06 01:45:42;;;;;;;2.90;2.30;;;3.00;99.90;;;;;;5046642;28;20046;-79
2024/01/06 01:48:08;;;;;;;3.00;2.50;;;3.00;99.90;;;;;;5043960;28;20057;-79
2024/01/06 01:50:34;;;;;;;4.10;1.67;;;3.00;99.90;;;;;;5043748;28;20095;-76
2024/01/06 01:53:00;;;;;;;5.38;3.58;;;3.00;99.90;;;;;;5040960;28;20042;-78
2024/01/06 01:55:26;;;;;;;3.63;2.00;;;2.80;99.90;;;;;;5042781;28;20059;-78
2024/01/06 01:57:52;;;;;;;2.90;2.38;;;2.90;99.90;;;;;;5018786;28;20030;-76
2024/01/06 02:00:18;;;;;;;3.38;1.90;;;2.90;99.90;;;;;;5045571;28;20052;-78
2024/01/06 02:02:44;;;;;;;2.35;0.70;;;2.90;99.90;;;;;;5028957;28;20033;-76
2024/01/06 02:05:10;;;;;;;2.63;2.10;;;2.90;99.90;;;;;;5027785;28;20057;-78
2024/01/06 02:07:35;;;;;;;2.88;1.95;;;2.80;99.90;;;;;;5037190;28;20056;-76
2024/01/06 02:10:01;;;;;;;4.57;1.98;;;2.80;99.90;;;;;;5039479;28;20120;-77
2024/01/06 02:12:27;;;;;;;3.28;2.33;;;2.80;99.90;;;;;;5036267;28;20049;-77
2024/01/06 02:14:53;;;;;;;3.95;2.35;;;2.80;99.90;;;;;;5038520;28;20042;-77
2024/01/06 02:17:18;;;;;;;2.90;2.50;;;2.80;99.90;;;;;;5037213;28;20042;-76
2024/01/06 02:19:44;;;;;;;5.57;3.25;;;2.80;99.90;;;;;;5025348;28;20021;-77
2024/01/06 02:22:10;;;;;;;2.25;1.90;;;2.70;99.90;;;;;;5041069;28;20057;-78
2024/01/06 02:24:36;;;;;;;3.03;2.25;;;2.80;99.90;;;;;;5029717;28;20034;-78
2024/01/06 02:27:01;;;;;;;2.42;1.98;;;2.90;99.90;;;;;;5036055;28;20100;-78
2024/01/06 02:29:27;;;;;;;4.22;1.98;;;2.80;99.90;;;;;;5023857;28;20034;-77
2024/01/06 02:31:53;;;;;;;4.55;2.42;;;2.80;99.90;;;;;;5044566;28;20134;-76
2024/01/06 02:34:18;;;;;;;2.08;1.60;;;2.70;99.90;;;;;;5023461;28;20053;-79
2024/01/06 02:36:44;;;;;;;1.48;1.38;;;2.80;99.90;;;;;;5043530;28;20064;-76
2024/01/06 02:39:10;;;;;;;2.25;1.90;;;2.80;99.90;;;;;;5041597;28;20311;-77
2024/01/06 02:41:36;;;;;;;3.50;2.20;;;2.70;99.90;;;;;;5028584;28;20065;-78
2024/01/06 02:44:04;;;;;;;2.92;2.33;;;2.70;99.90;;;;;;5022468;28;20042;-77
2024/01/06 02:46:29;;;;;;;5.38;1.90;;;2.70;99.90;;;;;;5026952;28;20045;-78
2024/01/06 02:48:55;;;;;;;2.42;1.85;;;2.70;99.90;;;;;;5006727;28;20038;-78
2024/01/06 02:51:21;;;;;;;2.42;2.22;;;2.70;99.90;;;;;;5022686;28;20216;-78
2024/01/06 02:53:46;;;;;;;3.80;2.28;;;2.70;99.90;;;;;;5007601;28;20571;-78
2024/01/06 02:56:13;;;;;;;2.22;1.85;;;2.60;99.90;;;;;;5021947;28;20046;-78
2024/01/06 02:58:39;;;;;;;3.17;1.98;;;2.60;99.90;;;;;;5015357;28;20065;-79
2024/01/06 03:01:05;;;;;;;2.72;2.42;;;2.60;99.90;;;;;;5019188;28;20103;-78
2024/01/06 03:03:31;;;;;;;3.80;1.92;;;2.70;99.90;;;;;;4999742;28;20049;-78
2024/01/06 03:05:57;;;;;;;1.90;1.30;;;2.70;99.90;;;;;;5018693;28;20046;-78
2024/01/06 03:08:23;;;;;;;2.55;1.80;;;2.70;99.90;;;;;;5011731;28;20424;-78
2024/01/06 03:10:49;;;;;;;1.52;1.38;;;2.70;99.90;;;;;;5022682;28;20050;-78
2024/01/06 03:13:15;;;;;;;3.95;2.25;;;2.60;99.90;;;;;;5023204;28;20037;-78
2024/01/06 03:15:40;;;;;;;2.90;2.08;;;2.60;99.90;;;;;;5000329;28;20395;-78
2024/01/06 03:18:06;;;;;;;3.15;1.98;;;2.60;99.90;;;;;;5021302;28;20121;-78
2024/01/06 03:20:32;;;;;;;3.10;1.70;;;2.60;99.90;;;;;;5020334;28;20478;-78
2024/01/06 03:22:57;;;;;;;2.28;1.63;;;2.60;99.90;;;;;;5019725;28;20038;-78
2024/01/06 03:25:23;;;;;;;4.35;2.55;;;2.60;99.90;;;;;;5001269;28;20441;-78
2024/01/06 03:27:49;;;;;;;1.73;1.27;;;2.60;99.90;;;;;;5020961;28;20049;-78
2024/01/06 03:30:14;;;;;;;3.50;2.67;;;2.60;99.90;;;;;;5025679;28;20128;-78
2024/01/06 03:32:40;;;;;;;4.75;3.28;;;2.60;99.90;;;;;;5023006;28;20050;-78
2024/01/06 03:35:06;;;;;;;1.23;0.90;;;2.60;99.90;;;;;;5010939;28;20033;-78
2024/01/06 03:37:32;;;;;;;4.38;2.35;;;2.50;99.90;;;;;;5001579;28;20038;-78
2024/01/06 03:39:58;;;;;;;2.35;1.98;;;2.60;99.90;;;;;;5019219;28;20050;-78
2024/01/06 03:42:24;;;;;;;5.03;2.17;;;2.50;99.90;;;;;;5016457;28;20371;-78
2024/01/06 03:44:50;;;;;;;4.22;2.60;;;2.50;99.90;;;;;;5021280;28;20430;-78
2024/01/06 03:47:16;;;;;;;1.30;1.20;;;2.50;99.90;;;;;;5001817;28;20046;-78
2024/01/06 03:49:41;;;;;;;3.40;2.03;;;2.40;99.90;;;;;;5010118;28;20095;-78
2024/01/06 03:52:07;;;;;;;5.63;2.33;;;2.40;99.90;;;;;;5010173;28;20401;-78
2024/01/06 03:54:33;;;;;;;2.88;2.33;;;2.40;99.90;;;;;;5000929;28;20037;-78
2024/01/06 03:56:59;;;;;;;5.28;2.83;;;2.40;99.90;;;;;;5034340;28;20135;-78
2024/01/06 03:59:25;;;;;;;6.10;2.75;;;2.40;99.90;;;;;;5041774;28;20119;-78
2024/01/06 04:01:51;;;;;;;3.05;2.10;;;2.40;99.90;;;;;;5034583;28;20049;-78
2024/01/06 04:04:17;;;;;;;3.15;1.42;;;2.30;99.90;;;;;;5033556;28;20042;-78
2024/01/06 04:06:42;;;;;;;2.25;1.88;;;2.30;99.90;;;;;;5020076;28;20049;-75
2024/01/06 04:09:09;;;;;;;4.45;2.45;;;2.30;99.90;;;;;;5040795;28;20080;-75
2024/01/06 04:11:35;;;;;;;7.03;3.28;;;2.30;99.90;;;;;;5034481;28;20050;-78
2024/01/06 04:14:00;;;;;;;3.10;1.83;;;2.30;99.90;;;;;;5023247;28;20635;-78
2024/01/06 04:16:29;;;;;;;3.22;2.22;;;2.30;99.90;;;;;;5036704;28;20034;-78
2024/01/06 04:18:55;;;;;;;4.88;2.25;;;2.30;99.90;;;;;;5042254;28;20037;-76
2024/01/06 04:21:20;;;;;;;2.40;2.20;;;2.30;99.90;;;;;;5034751;28;20042;-78
2024/01/06 04:23:46;;;;;;;1.48;1.23;;;2.30;99.90;;;;;;5021881;28;20057;-78
2024/01/06 04:26:12;;;;;;;8.05;3.10;;;2.30;99.90;;;;;;5022529;28;20041;-78
2024/01/06 04:28:38;;;;;;;3.67;2.13;;;2.30;99.90;;;;;;5018450;28;20038;-76
2024/01/06 04:31:03;;;;;;;3.13;2.30;;;2.30;99.90;;;;;;5030858;28;20033;-78
2024/01/06 04:33:29;;;;;;;5.30;2.22;;;2.20;99.90;;;;;;5021972;28;20077;-79
2024/01/06 04:35:55;;;;;;;1.60;1.27;;;2.30;99.90;;;;;;5045909;28;20045;-76
2024/01/06 04:38:20;;;;;;;1.98;1.20;;;2.30;99.90;;;;;;5020470;28;20022;-78
2024/01/06 04:40:46;;;;;;;4.30;3.20;;;2.20;99.90;;;;;;5027401;28;20065;-78
2024/01/06 04:43:12;;;;;;;4.15;1.73;;;2.20;99.90;;;;;;5048434;28;20544;-78
2024/01/06 04:45:37;;;;;;;1.90;1.45;;;2.20;99.90;;;;;;5042043;28;20034;-78
2024/01/06 04:48:04;;;;;;;4.43;1.80;;;2.20;99.90;;;;;;5025696;28;20109;-77
2024/01/06 04:50:30;;;;;;;4.68;2.03;;;2.20;99.90;;;;;;5026970;28;20068;-79
2024/01/06 04:52:55;;;;;;;4.32;2.28;;;2.20;99.90;;;;;;5041108;28;20069;-77
2024/01/06 04:55:21;;;;;;;2.40;1.90;;;2.20;99.90;;;;;;5042766;28;20060;-78
2024/01/06 04:57:49;;;;;;;1.63;1.35;;;2.20;99.90;;;;;;5023062;28;20045;-76
2024/01/06 05:00:15;;;;;;;3.25;1.90;;;2.20;99.90;;;;;;5045784;28;20129;-76
2024/01/06 05:02:41;;;;;;;4.97;2.83;;;2.10;99.90;;;;;;5045584;28;20396;-78
2024/01/06 05:05:07;;;;;;;3.80;2.38;;;2.10;99.90;;;;;;5043707;28;20034;-79
2024/01/06 05:07:32;;;;;;;1.77;1.63;;;2.10;99.90;;;;;;5025860;28;20041;-76
2024/01/06 05:09:58;;;;;;;2.42;1.05;;;2.10;99.90;;;;;;5026337;28;20095;-79
2024/01/06 05:12:24;;;;;;;1.45;1.35;;;2.00;99.90;;;;;;5043023;28;20113;-77
2024/01/06 05:14:49;;;;;;;2.30;1.80;;;2.10;99.90;;;;;;5023937;28;20026;-78
2024/01/06 05:17:15;;;;;;;1.75;0.75;;;2.10;99.90;;;;;;5038320;28;20509;-78
2024/01/06 05:19:41;;;;;;;5.45;2.67;;;2.10;99.90;;;;;;5034684;28;20074;-78
2024/01/06 05:22:07;;;;;;;2.28;1.80;;;2.20;99.90;;;;;;5033143;28;20701;-78
2024/01/06 05:24:32;;;;;;;1.67;1.13;;;2.10;99.90;;;;;;5029706;28;20056;-78
2024/01/06 05:26:58;;;;;;;3.83;2.28;;;2.10;99.90;;;;;;5055211;28;20060;-78
2024/01/06 05:29:25;;;;;;;1.77;1.48;;;2.10;99.90;;;;;;5036497;28;20190;-78
2024/01/06 05:31:51;;;;;;;2.15;1.48;;;2.20;99.90;;;;;;5013476;28;20041;-78
2024/01/06 05:34:17;;;;;;;3.47;1.83;;;2.20;99.90;;;;;;5031700;28;20038;-78
2024/01/06 05:36:43;;;;;;;8.88;2.53;;;2.20;99.90;;;;;;5018144;28;20037;-78
2024/01/06 05:39:09;;;;;;;2.60;1.42;;;2.10;99.90;;;;;;5031879;28;20037;-78
2024/01/06 05:41:39;;;;;;;2.55;1.88;;;2.20;99.90;;;;;;5036569;28;20429;-78
2024/01/06 05:44:05;;;;;;;1.48;1.02;;;2.20;99.90;;;;;;5024318;28;20046;-78
2024/01/06 05:46:31;;;;;;;1.58;1.40;;;2.20;99.90;;;;;;5034718;28;20033;-78
2024/01/06 05:48:56;;;;;;;7.03;2.15;;;2.20;99.90;;;;;;5019578;28;20432;-78
2024/01/06 05:51:22;;;;;;;2.47;1.83;;;2.10;99.90;;;;;;5019280;28;20095;-78
2024/01/06 05:53:48;;;;;;;2.05;1.83;;;2.10;99.90;;;;;;5020657;28;20042;-78
2024/01/06 05:56:27;;;;;;;1.77;1.33;;;2.10;99.90;;;;;;5033959;28;20044;-79
2024/01/06 05:58:54;;;;;;;3.25;1.80;;;2.10;99.90;;;;;;5035890;28;20289;-79
2024/01/06 06:01:20;;;;;;;4.55;1.35;;;2.10;99.90;;;;;;5034567;28;20124;-79
2024/01/06 06:03:50;;;;;;;3.00;2.05;;;2.00;99.90;;;;;;5040991;28;20402;-79
2024/01/06 06:06:15;;;;;;;2.15;1.67;;;2.00;99.90;;;;;;5050710;28;20049;-79
2024/01/06 06:08:42;;;;;;;1.60;1.35;;;2.00;99.90;;;;;;5038573;28;20183;-79
2024/01/06 06:11:11;;;;;;;4.38;1.75;;;2.00;99.90;;;;;;5021322;28;20592;-79
2024/01/06 06:13:38;;;;;;;2.47;1.60;;;2.00;99.90;;;;;;5014386;28;20047;-79
2024/01/06 06:16:05;;;;;;;13.63;1.25;;;2.00;99.90;;;;;;5033697;28;20081;-79
2024/01/06 06:18:30;;;;;;;3.85;2.35;;;2.00;99.90;;;;;;5030549;28;20062;-79
2024/01/06 06:20:56;;;;;;;2.00;1.60;;;2.00;99.90;;;;;;5024224;28;20053;-79
2024/01/06 06:23:22;;;;;;;1.83;1.65;;;1.90;99.90;;;;;;5033955;28;20038;-79
2024/01/06 06:25:47;;;;;;;2.30;1.65;;;1.90;99.90;;;;;;5013315;28;20040;-80
2024/01/06 06:28:13;;;;;;;4.53;1.90;;;1.90;99.90;;;;;;5020291;28;20033;-80
2024/01/06 06:30:39;;;;;;;1.27;0.65;;;2.00;99.90;;;;;;5022024;28;20045;-80
2024/01/06 06:33:05;;;;;;;1.67;1.38;;;2.00;99.90;;;;;;5017418;28;20073;-80
2024/01/06 06:35:30;;;;;;;5.53;1.98;;;1.90;99.90;;;;;;5023605;28;20065;-80
2024/01/06 06:37:56;;;;;;;2.08;1.00;;;1.90;99.90;;;;;;5016832;28;20070;-81
2024/01/06 06:40:22;;;;;;;3.33;2.08;;;1.90;99.90;;;;;;5000575;28;20038;-80
2024/01/06 06:42:47;;;;;;;4.65;2.83;;;1.90;99.90;;;;;;5003558;28;20037;-81
2024/01/06 06:45:13;;;;;;;2.47;2.03;;;1.90;99.90;;;;;;5004600;28;20386;-80
2024/01/06 06:47:39;;;;;;;2.03;1.60;;;2.00;99.90;;;;;;5008257;28;20073;-80
2024/01/06 06:50:05;;;;;;;1.77;1.52;;;2.00;99.90;;;;;;5021472;28;20053;-80
2024/01/06 06:52:31;;;;;;;2.45;2.08;;;2.00;99.90;;;;;;5022602;28;20048;-80
2024/01/06 06:54:57;;;;;;;3.13;1.40;;;1.90;99.90;;;;;;5012217;28;20037;-79
2024/01/06 06:57:24;;;;;;;2.45;1.55;;;2.00;99.90;;;;;;5003567;28;20064;-80
2024/01/06 06:59:49;;;;;;;2.15;1.70;;;2.00;99.90;;;;;;5020640;28;20053;-80
2024/01/06 07:02:15;;;;;;;3.35;1.48;;;1.90;99.90;;;;;;5004552;28;20046;-81
2024/01/06 07:04:41;;;;;;;3.58;2.92;;;1.90;99.90;;;;;;5007065;28;20478;-81
2024/01/06 07:07:07;;;;;;;1.70;1.60;;;2.00;99.90;;;;;;5022279;28;20129;-80
2024/01/06 07:09:32;;;;;;;1.90;1.52;;;1.90;99.90;;;;;;5018696;28;20041;-79
2024/01/06 07:11:58;;;;;;;3.55;1.85;;;2.00;99.90;;;;;;5011811;28;20136;-80
2024/01/06 07:14:24;;;;;;;3.30;2.30;;;2.00;99.90;;;;;;4999901;28;20052;-80
2024/01/06 07:16:49;;;;;;;3.60;1.63;;;2.00;99.90;;;;;;5016918;28;20486;-80
2024/01/06 07:19:16;;;;;;;1.63;1.30;;;1.90;99.90;;;;;;5003838;28;20414;-80
2024/01/06 07:21:42;;;;;;;1.83;1.05;;;2.00;99.90;;;;;;5023018;28;20037;-80
2024/01/06 07:24:07;;;;;;;2.75;1.60;;;2.00;99.90;;;;;;5006746;28;20041;-81
2024/01/06 07:26:33;;;;;;;2.90;1.83;;;2.00;99.90;;;;;;5022135;28;20054;-80
2024/01/06 07:28:59;;;;;;;1.92;1.05;;;2.00;99.90;;;;;;5017684;28;20443;-80
2024/01/06 07:31:25;;;;;;;1.48;1.20;;;2.00;99.90;;;;;;5003719;28;20037;-81
2024/01/06 07:33:50;;;;;;;2.53;1.45;;;2.00;99.90;;;;;;5009055;28;20056;-81
2024/01/06 07:36:17;;;;;;;4.05;1.90;;;2.00;99.90;;;;;;5027059;28;20052;-79
2024/01/06 07:38:44;;;;;;;3.08;1.67;;;2.00;99.90;;;;;;5012647;28;20042;-79
2024/01/06 07:41:10;;;;;;;2.70;2.42;;;2.00;99.90;;;;;;5039644;28;20357;-79
2024/01/06 07:43:36;;;;;;;2.80;1.35;;;2.00;99.90;;;;;;5013723;28;20418;-79
2024/01/06 07:46:03;;;;;;;3.33;1.80;;;2.10;99.90;;;;;;5032849;28;20037;-79
2024/01/06 07:48:29;;;;;;;2.28;1.45;;;2.10;99.90;;;;;;5055435;28;20042;-79
2024/01/06 07:50:55;;;;;;;2.67;2.03;;;2.00;99.90;;;;;;5031744;28;20041;-79
2024/01/06 07:53:21;;;;;;;1.80;1.60;;;2.10;99.90;;;;;;5016213;28;20046;-79
2024/01/06 07:55:47;;;;;;;1.60;1.38;;;2.10;99.90;;;;;;5034191;28;20038;-79
2024/01/06 07:58:13;;;;;;;1.95;1.73;;;2.00;99.90;;;;;;5018784;28;20068;-79
2024/01/06 08:00:39;;;;;;;2.80;1.83;;;2.10;99.90;;;;;;5030646;28;20050;-79
2024/01/06 08:03:05;;;;;;;2.40;1.40;;;2.20;99.90;;;;;;5010486;28;20041;-79
2024/01/06 08:05:31;;;;;;;2.92;1.77;;;2.10;99.90;;;;;;5030790;28;20049;-79
2024/01/06 08:07:58;;;;;;;5.88;3.22;;;2.10;99.90;;;;;;5031617;28;20084;-79
2024/01/06 08:10:26;;;;;;;3.33;2.08;;;2.10;99.90;;;;;;5019540;28;20132;-79
2024/01/06 08:12:53;;;;;;;2.47;1.75;;;2.20;99.90;;;;;;5038249;28;20440;-79
2024/01/06 08:15:19;;;;;;;2.38;1.58;;;2.10;99.90;;;;;;5034766;28;20050;-79
2024/01/06 08:17:45;;;;;;;1.88;1.70;;;2.10;99.90;;;;;;5020244;28;20096;-78
2024/01/06 08:20:11;;;;;;;2.55;1.98;;;2.20;99.90;;;;;;5035153;28;20033;-78
2024/01/06 08:22:36;;;;;;;1.85;1.58;;;2.20;99.90;;;;;;5034887;28;20033;-78
2024/01/06 08:25:02;;;;;;;6.80;2.33;;;2.20;99.90;;;;;;5041017;28;20076;-78
2024/01/06 08:27:28;;;;;;;2.38;1.50;;;2.20;99.90;;;;;;5046883;28;20467;-78
2024/01/06 08:29:54;;;;;;;6.35;1.70;;;2.20;99.90;;;;;;5042658;28;20096;-78
2024/01/06 08:32:19;;;;;;;2.38;1.75;;;2.20;99.90;;;;;;5027237;28;20052;-78
2024/01/06 08:34:45;;;;;;;4.10;1.50;;;2.20;99.90;;;;;;5042379;28;20033;-78
2024/01/06 08:37:11;;;;;;;2.50;1.33;;;2.20;99.90;;;;;;5039867;28;20045;-78
2024/01/06 08:39:36;;;;;;;6.15;3.15;;;2.20;99.90;;;;;;5024787;28;20048;-78
2024/01/06 08:42:02;;;;;;;1.98;1.13;;;2.20;99.90;;;;;;5027263;28;20405;-78
2024/01/06 08:44:28;;;;;;;2.17;1.48;;;2.20;99.90;;;;;;5041490;28;20037;-78
2024/01/06 08:46:54;;;;;;;6.05;2.33;;;2.20;99.90;;;;;;5048385;28;20042;-81
2024/01/06 08:49:19;;;;;;;1.65;1.52;;;2.20;99.90;;;;;;5026100;28;20050;-80
2024/01/06 08:51:45;;;;;;;1.17;0.95;;;2.20;99.90;;;;;;5011682;28;20508;-80
2024/01/06 08:54:11;;;;;;;2.78;1.75;;;2.20;99.90;;;;;;5025486;28;20042;-79
2024/01/06 08:56:37;;;;;;;2.28;1.58;;;2.30;99.90;;;;;;5026606;28;20041;-80
2024/01/06 08:59:03;;;;;;;3.20;2.10;;;2.30;99.90;;;;;;5023440;28;20038;-81
2024/01/06 09:01:29;;;;;;;1.88;1.70;;;2.30;99.90;;;;;;5020708;28;20051;-80
2024/01/06 09:03:54;;;;;;;1.33;1.23;;;2.30;99.90;;;;;;5008451;28;20037;-81
2024/01/06 09:06:20;;;;;;;5.22;2.20;;;2.30;99.90;;;;;;5029094;28;20033;-81
2024/01/06 09:08:46;;;;;;;1.30;1.20;;;2.40;99.90;;;;;;5027290;28;20386;-80
2024/01/06 09:11:12;;;;;;;1.52;1.40;;;2.40;99.90;;;;;;5023210;28;20045;-81
2024/01/06 09:13:37;;;;;;;3.70;2.08;;;2.40;99.90;;;;;;5023049;28;20041;-81
2024/01/06 09:16:03;;;;;;;2.47;1.80;;;2.40;99.90;;;;;;5027877;28;20037;-80
2024/01/06 09:18:29;;;;;;;2.38;1.63;;;2.40;99.90;;;;;;5021833;28;20030;-80
2024/01/06 09:20:55;;;;;;;1.63;1.20;;;2.30;99.90;;;;;;5023151;28;20038;-81
2024/01/06 09:23:22;;;;;;;1.95;1.17;;;2.40;99.90;;;;;;5027542;28;20037;-81
2024/01/06 09:25:52;;;;;;;2.92;1.63;;;2.30;99.90;;;;;;5022674;28;20041;-80
2024/01/06 09:28:18;;;;;;;3.03;2.47;;;2.40;99.90;;;;;;5008932;28;20132;-80
2024/01/06 09:30:44;;;;;;;1.27;1.10;;;2.40;99.90;;;;;;5000873;28;20164;-81
2024/01/06 09:33:10;;;;;;;5.18;1.80;;;2.30;99.90;;;;;;5010126;28;20128;-80
2024/01/06 09:35:35;;;;;;;2.13;1.88;;;2.40;99.90;;;;;;5022918;28;20518;-81
2024/01/06 09:38:01;;;;;;;1.77;1.27;;;2.40;99.90;;;;;;5009620;28;20513;-81
2024/01/06 09:40:31;;;;;;;3.15;1.88;;;2.40;99.90;;;;;;5023300;28;20041;-81
2024/01/06 09:42:57;;;;;;;3.38;1.50;;;2.40;99.90;;;;;;5027118;28;20042;-81
2024/01/06 09:45:23;;;;;;;2.28;1.00;;;2.40;99.90;;;;;;5018507;28;20060;-81
2024/01/06 09:47:50;;;;;;;2.67;1.98;;;2.40;99.90;;;;;;5024676;28;20071;-81
2024/01/06 09:50:21;;;;;;;2.90;1.95;;;2.40;99.90;;;;;;5020985;28;20061;-80
2024/01/06 09:52:53;;;;;;;3.10;2.03;;;2.50;99.90;;;;;;5026493;28;20080;-80
2024/01/06 09:55:26;;;;;;;2.35;1.52;;;2.40;99.90;;;;;;5025673;28;20041;-80
2024/01/06 09:57:52;;;;;;;2.08;1.50;;;2.50;99.90;;;;;;5014661;28;20038;-78
2024/01/06 10:00:19;;;;;;;2.10;1.85;;;2.50;99.90;;;;;;5015674;28;20150;-78
2024/01/06 10:02:46;;;;;;;1.95;1.15;;;2.50;99.90;;;;;;5013079;28;20037;-78
2024/01/06 10:05:13;;;;;;;3.65;2.28;;;2.50;99.90;;;;;;5033934;28;20045;-78
2024/01/06 10:07:43;;;;;;;4.85;2.17;;;2.50;99.90;;;;;;5013511;28;20038;-78
2024/01/06 10:10:10;;;;;;;4.05;1.92;;;2.50;99.90;;;;;;5031842;28;20064;-78
2024/01/06 10:12:40;;;;;;;2.38;1.70;;;2.50;99.90;;;;;;5032621;28;20041;-79
2024/01/06 10:15:11;;;;;;;3.80;1.73;;;2.50;99.90;;;;;;5013316;28;20049;-78
2024/01/06 10:17:41;;;;;;;2.47;1.23;;;2.50;99.90;;;;;;5032315;28;20046;-78
2024/01/06 10:20:11;;;;;;;2.25;2.05;;;2.50;99.90;;;;;;5030098;28;20037;-78
2024/01/06 10:22:38;;;;;;;2.83;1.48;;;2.50;99.90;;;;;;5024782;28;20022;-76
2024/01/06 10:25:08;;;;;;;2.08;1.40;;;2.60;99.90;;;;;;5018161;28;20051;-79
2024/01/06 10:27:38;;;;;;;2.47;2.08;;;2.50;99.90;;;;;;5065022;28;20037;-77
2024/01/06 10:30:08;;;;;;;4.90;2.30;;;2.50;99.90;;;;;;5036935;28;20255;-75
2024/01/06 10:32:36;;;;;;;1.77;1.45;;;2.40;99.90;;;;;;5029783;28;20040;-79
2024/01/06 10:35:03;;;;;;;3.58;1.92;;;2.50;99.90;;;;;;5037004;28;20049;-78
2024/01/06 10:37:29;;;;;;;3.67;1.67;;;2.50;99.90;;;;;;5041580;28;20097;-77
2024/01/06 10:40:13;;;;;;;1.70;0.85;;;2.50;99.90;;;;;;5020788;28;20049;-76
2024/01/06 10:42:40;;;;;;;2.30;1.30;;;2.50;99.90;;;;;;5028035;28;20033;-76
2024/01/06 10:45:10;;;;;;;3.33;1.77;;;2.50;99.90;;;;;;5040987;28;20080;-76
2024/01/06 10:47:37;;;;;;;5.13;2.28;;;2.60;99.90;;;;;;5042857;28;20056;-76
2024/01/06 10:50:04;;;;;;;3.22;2.30;;;2.50;99.90;;;;;;5029838;28;20037;-76
2024/01/06 10:52:31;;;;;;;1.30;1.10;;;2.50;99.90;;;;;;5020689;28;20042;-78
2024/01/06 10:54:58;;;;;;;2.03;1.75;;;2.50;99.90;;;;;;5046004;28;20044;-76
2024/01/06 10:57:24;;;;;;;1.90;1.38;;;2.60;99.90;;;;;;5038515;28;20060;-78
2024/01/06 10:59:51;;;;;;;2.90;2.20;;;2.50;99.90;;;;;;5042435;28;20045;-77
2024/01/06 11:02:17;;;;;;;3.40;1.52;;;2.60;99.90;;;;;;5022390;28;20049;-77
2024/01/06 11:04:48;;;;;;;3.15;1.88;;;2.60;99.90;;;;;;5023082;28;20040;-75
2024/01/06 11:07:16;;;;;;;2.28;1.83;;;2.50;99.90;;;;;;5031129;28;20042;-78
2024/01/06 11:09:52;;;;;;;2.90;1.35;;;2.60;99.90;;;;;;5032387;28;20049;-78
2024/01/06 11:12:19;;;;;;;2.50;1.60;;;2.60;99.90;;;;;;5027304;28;20397;-78
2024/01/06 11:14:45;;;;;;;3.05;1.95;;;2.60;99.90;;;;;;5029229;28;20140;-78
2024/01/06 11:17:11;;;;;;;2.35;1.35;;;2.50;99.90;;;;;;5029177;28;20081;-78
2024/01/06 11:19:37;;;;;;;1.75;0.98;;;2.60;99.90;;;;;;5030643;28;20060;-78
2024/01/06 11:22:31;;;;;;;3.50;1.58;;;2.50;99.90;;;;;;5032252;28;20406;-78
2024/01/06 11:25:07;;;;;;;2.92;1.75;;;2.50;99.90;;;;;;5030563;28;20053;-78
2024/01/06 11:27:33;;;;;;;1.15;0.93;;;2.60;99.90;;;;;;5015966;28;20144;-78
2024/01/06 11:30:05;;;;;;;2.60;2.15;;;2.60;99.90;;;;;;5024997;28;20046;-78
2024/01/06 11:32:36;;;;;;;2.72;1.90;;;2.60;99.90;;;;;;5027500;28;20073;-78
2024/01/06 11:35:11;;;;;;;2.75;1.20;;;2.70;99.90;;;;;;5027978;28;20095;-78
2024/01/06 11:37:37;;;;;;;;;;;2.70;99.90;;;;;;5027712;28;20034;-78
2024/01/06 11:40:07;;;;;;;3.00;2.33;;;2.70;99.90;;;;;;5012934;28;19921;-78
2024/01/06 11:42:35;;;;;;;2.05;1.75;;;2.70;99.90;;;;;;5004797;28;20471;-78
2024/01/06 11:45:07;;;;;;;1.58;1.02;;;2.70;99.90;;;;;;5024861;28;20048;-79
2024/01/06 11:47:36;;;;;;;1.13;0.77;;;2.60;99.90;;;;;;5015766;28;20697;-78
2024/01/06 11:50:05;;;;;;;1.77;1.48;;;2.60;99.90;;;;;;5005498;28;20054;-78
2024/01/06 11:52:32;;;;;;;1.13;0.65;;;2.60;99.90;;;;;;5025924;28;20045;-78
2024/01/06 11:54:58;;;;;;;1.23;1.13;;;2.50;99.90;;;;;;5024118;28;20510;-78
2024/01/06 11:57:28;;;;;;;2.22;1.27;;;2.50;99.90;;;;;;5012111;28;20665;-78
2024/01/06 11:59:54;;;;;;;1.80;1.58;;;2.50;99.90;;;;;;5013252;28;20096;-79
2024/01/06 12:02:22;;;;;;;1.70;1.52;;;2.50;99.90;;;;;;5010600;28;20049;-79
2024/01/06 12:04:50;;;;;;;3.20;2.17;;;2.50;99.90;;;;;;5026042;28;20042;-79
2024/01/06 12:07:16;;;;;;;1.63;1.35;;;2.50;99.90;;;;;;5002526;28;20037;-79
2024/01/06 12:09:41;;;;;;;1.23;1.08;;;2.60;99.90;;;;;;5024973;28;20092;-79
2024/01/06 12:12:09;;;;;;;2.33;1.55;;;2.60;99.90;;;;;;5010471;28;20099;-78
2024/01/06 12:14:35;;;;;;;1.95;1.75;;;2.50;99.90;;;;;;5030424;28;20045;-78
2024/01/06 12:17:03;;;;;;;2.85;2.20;;;2.50;99.90;;;;;;5003042;28;20126;-78
2024/01/06 12:19:31;;;;;;;2.67;1.35;;;2.50;99.90;;;;;;5006904;28;20038;-80
2024/01/06 12:21:57;;;;;;;3.55;2.13;;;2.60;99.90;;;;;;5004028;28;20545;-81
2024/01/06 12:24:23;;;;;;;2.80;1.83;;;2.40;99.90;;;;;;5003637;28;20041;-80
2024/01/06 12:26:49;;;;;;;2.08;1.85;;;2.50;99.90;;;;;;5018348;28;20624;-81
2024/01/06 12:29:16;;;;;;;2.15;1.38;;;2.40;99.90;;;;;;5005606;28;20041;-81
2024/01/06 12:31:43;;;;;;;1.67;1.23;;;2.40;99.90;;;;;;5020230;28;20060;-80
2024/01/06 12:34:10;;;;;;;3.65;1.90;;;2.40;99.90;;;;;;5024332;28;20174;-82
2024/01/06 12:36:37;;;;;;;1.42;1.33;;;2.40;99.90;;;;;;5005995;28;20045;-81
2024/01/06 12:39:03;;;;;;;2.90;1.98;;;2.50;99.90;;;;;;5022243;28;20041;-81
2024/01/06 12:41:29;;;;;;;4.60;2.47;;;2.40;99.90;;;;;;5023603;28;20038;-81
2024/01/06 12:43:55;;;;;;;2.45;1.75;;;2.50;99.90;;;;;;5007345;28;20448;-80
2024/01/06 12:46:21;;;;;;;2.22;1.90;;;2.40;99.90;;;;;;5022556;28;20125;-80
2024/01/06 12:48:46;;;;;;;3.38;1.45;;;2.40;99.90;;;;;;5022562;28;20034;-81
2024/01/06 12:51:12;;;;;;;2.60;1.67;;;2.50;99.90;;;;;;5001058;28;20049;-81
2024/01/06 12:53:38;;;;;;;1.90;1.20;;;2.50;99.90;;;;;;5027818;28;20049;-81